Aloha, Oregon
Current Conditions -  °F | °C
As of 9:53 PM on Saturday 22 Nov 2014 (Local Time) from KHIO Reporting Station
Haze Haze  
Wind Chill:   Ceiling: Unl
Heat Index:   Visibility: 0.75mi
Dew Point:   Wind: 0mph
Humidity: 85%   Direction: NA
Pressure: 30.2"   Gusts: NA
Location:  45.49°N, 122.86°W
Report Text: KHIO 230553Z AUTO 00000KT 3/4SM R13/P6000FT BR FEW080 06/03 A3020 RMK AO2 RAE10 SLP229 P0000 60002 T00560033 10133 20056 51016
Loading
Personal Weather Stations






























Interactive Weather Map New forecast layout! Learn more

10-Day Weather Forecast

Advertisements
Track Severe Weather on mobile